SAOC/RCU METAR and TAF weather

Enter ICAO airport designator
Station Type Date Time Source
SAOC METAR 2019/08/24 20:00 UTC NOAA

SAOC 242000Z 02013G24KT 9000 NSC 22/04 Q1014 RMK ESTIMATED WIND


Station Type Date Time Source
SAOC Decoded METAR 2019/08/24 20:00 UTC NOAA

Station name not available
Aug 24, 2019 - 04:00 PM EDT / 2019.08.24 2000 UTC
Wind: from the NNE (020 degrees) at 15 MPH (13 KT) gusting to 28 MPH (24 KT):0
Visibility: 5 mile(s):0
Temperature: 71 F (22 C)
Dew Point: 39 F (4 C)
Relative Humidity: 30%
Pressure (altimeter): 29.94 in. Hg (1014 hPa)
ob: SAOC 242000Z 02013G24KT 9000 NSC 22/04 Q1014 RMK ESTIMATED WIND
cycle: 20

Station Type Date Time Source
SAOC TAF 2019/08/20 00:04 UTC NOAA

TAF SAOC 202300Z 2100/2124 02020KT CAVOK TX17/2118Z TN02/2110Z
BECMG 2106/2108 02010KT
BECMG 2114/2116 05015G25KT

Example: see airport list